Time;durP1;ratioP1;P1;durP2;ratioP2;P2;SDS_P1;SDS_P2;PMS_P1;PMS_P2;Temp;Humidity;BMP_temperature;BMP_pressure;BME280_temperature;BME280_humidity;BME280_pressure;Samples;Min_cycle;Max_cycle;Signal;HPM_P1;HPM_P2
2023/05/29 00:02:24;;;;;;;9.63;4.82;;;30.60;99.90;;;;;;5043356;28;20048;-41
2023/05/29 00:04:50;;;;;;;7.05;4.15;;;30.60;99.90;;;;;;5046092;28;20301;-47
2023/05/29 00:07:17;;;;;;;8.50;4.55;;;30.70;99.90;;;;;;5053985;28;20033;-42
2023/05/29 00:09:43;;;;;;;7.35;4.85;;;30.80;99.90;;;;;;5050385;28;20044;-41
2023/05/29 00:12:11;;;;;;;6.25;4.60;;;30.70;99.90;;;;;;5046462;28;20076;-40
2023/05/29 00:14:38;;;;;;;12.55;7.25;;;30.70;99.90;;;;;;5046816;28;20044;-47
2023/05/29 00:17:04;;;;;;;13.45;8.73;;;30.80;99.90;;;;;;5045290;28;20360;-42
2023/05/29 00:19:31;;;;;;;11.15;7.05;;;30.80;99.90;;;;;;5044981;28;20160;-45
2023/05/29 00:21:57;;;;;;;13.32;8.82;;;30.60;99.90;;;;;;5050437;28;20059;-41
2023/05/29 00:24:24;;;;;;;15.43;7.10;;;30.50;99.90;;;;;;5065050;28;20040;-42
2023/05/29 00:26:50;;;;;;;8.27;5.22;;;30.40;99.90;;;;;;5065813;28;20229;-46
2023/05/29 00:29:21;;;;;;;8.40;3.90;;;30.40;99.90;;;;;;5065162;28;20357;-40
2023/05/29 00:31:48;;;;;;;7.53;3.20;;;30.50;99.90;;;;;;5066279;28;20075;-42
2023/05/29 00:34:15;;;;;;;5.88;2.50;;;30.50;99.90;;;;;;5066198;28;20009;-42
2023/05/29 00:36:42;;;;;;;5.38;2.35;;;30.40;99.90;;;;;;5066313;28;20244;-49
2023/05/29 00:39:09;;;;;;;5.77;2.10;;;30.30;99.70;;;;;;5056952;28;20041;-43
2023/05/29 00:41:35;;;;;;;6.78;2.20;;;30.20;99.70;;;;;;5056696;28;20070;-44
2023/05/29 00:44:02;;;;;;;6.03;2.15;;;30.30;99.70;;;;;;5065066;28;20024;-46
2023/05/29 00:46:31;;;;;;;7.38;2.15;;;30.60;99.40;;;;;;5065255;28;20037;-45
2023/05/29 00:48:59;;;;;;;6.75;1.95;;;30.60;99.10;;;;;;5064487;28;20251;-44
2023/05/29 00:51:27;;;;;;;4.63;1.77;;;30.60;98.90;;;;;;5064842;28;20017;-52
2023/05/29 00:53:55;;;;;;;4.13;1.80;;;30.70;98.50;;;;;;5065174;28;20032;-44
2023/05/29 00:56:23;;;;;;;6.65;2.00;;;30.60;98.30;;;;;;5065199;28;20031;-43
2023/05/29 00:58:51;;;;;;;6.03;1.80;;;30.60;98.10;;;;;;5065689;28;20020;-43
2023/05/29 01:01:24;;;;;;;6.20;1.98;;;30.60;97.80;;;;;;5064059;28;20055;-43
2023/05/29 01:03:53;;;;;;;4.35;1.77;;;30.50;97.60;;;;;;5064514;28;20108;-44
2023/05/29 01:06:20;;;;;;;5.50;1.80;;;30.60;97.60;;;;;;5065081;28;20033;-43
2023/05/29 01:08:47;;;;;;;4.97;1.55;;;30.50;97.30;;;;;;5064511;28;20055;-43
2023/05/29 01:11:48;;;;;;;4.22;1.60;;;30.50;97.30;;;;;;5065221;28;20049;-43
2023/05/29 01:14:29;;;;;;;8.43;2.53;;;30.40;97.00;;;;;;5064061;28;20087;-44
2023/05/29 01:17:31;;;;;;;3.92;1.65;;;30.40;96.80;;;;;;5065032;28;20090;-43
2023/05/29 01:20:04;;;;;;;3.92;1.70;;;30.40;96.70;;;;;;5064268;28;20052;-52
2023/05/29 01:22:44;;;;;;;5.60;1.52;;;30.40;96.70;;;;;;5065224;28;20021;-42
2023/05/29 01:25:37;;;;;;;2.72;1.17;;;30.30;96.60;;;;;;5065120;28;20032;-42
2023/05/29 01:28:07;;;;;;;4.20;1.50;;;30.30;96.80;;;;;;5064928;28;20082;-44
2023/05/29 01:30:35;;;;;;;3.08;1.33;;;30.30;96.80;;;;;;5065330;28;20312;-45
2023/05/29 01:33:02;;;;;;;4.72;1.40;;;30.30;96.80;;;;;;5064860;28;20020;-53
2023/05/29 01:35:29;;;;;;;7.18;1.60;;;30.30;96.80;;;;;;5052432;28;20017;-40
2023/05/29 01:37:56;;;;;;;6.57;2.20;;;30.10;97.10;;;;;;5062025;28;20037;-45
2023/05/29 01:40:22;;;;;;;5.82;2.10;;;29.80;97.80;;;;;;5065039;28;20225;-41
2023/05/29 01:42:50;;;;;;;5.90;2.38;;;29.70;98.30;;;;;;5064758;28;20028;-47
2023/05/29 01:45:17;;;;;;;8.23;2.50;;;29.70;98.80;;;;;;5060516;28;20297;-46
2023/05/29 01:47:44;;;;;;;6.03;2.20;;;29.80;99.20;;;;;;5048304;28;20088;-42
2023/05/29 01:50:13;;;;;;;9.43;2.65;;;29.70;99.60;;;;;;5044879;28;20360;-42
2023/05/29 01:52:40;;;;;;;5.72;2.42;;;29.80;99.80;;;;;;5044565;28;20038;-39
2023/05/29 01:55:07;;;;;;;7.85;2.60;;;29.90;99.90;;;;;;5063031;28;20028;-45
2023/05/29 01:57:34;;;;;;;6.32;2.42;;;30.00;99.90;;;;;;5063905;28;20240;-47
2023/05/29 02:00:08;;;;;;;9.10;2.83;;;30.20;99.60;;;;;;5064347;28;20041;-45
2023/05/29 02:02:38;;;;;;;11.52;3.33;;;30.30;99.40;;;;;;5064337;28;20025;-45
2023/05/29 02:05:07;;;;;;;10.18;3.30;;;30.20;99.10;;;;;;5064543;28;20116;-44
2023/05/29 02:07:36;;;;;;;6.45;2.70;;;30.30;98.90;;;;;;5064575;28;20036;-47
2023/05/29 02:10:07;;;;;;;6.65;3.15;;;30.20;98.70;;;;;;5064033;28;20047;-43
2023/05/29 02:12:34;;;;;;;5.95;2.85;;;30.30;98.60;;;;;;5064318;28;20207;-43
2023/05/29 02:15:00;;;;;;;8.13;3.15;;;30.20;98.50;;;;;;5064133;28;20336;-55
2023/05/29 02:17:27;;;;;;;7.20;2.90;;;30.20;98.40;;;;;;5064115;28;20212;-43
2023/05/29 02:19:53;;;;;;;8.07;3.05;;;30.20;98.40;;;;;;5064614;28;20100;-45
2023/05/29 02:22:20;;;;;;;9.07;3.25;;;30.20;98.30;;;;;;5064072;28;20294;-50
2023/05/29 02:24:46;;;;;;;8.13;3.20;;;30.20;98.20;;;;;;5063985;28;20021;-46
2023/05/29 02:27:13;;;;;;;7.68;3.80;;;30.20;98.30;;;;;;5063780;28;20033;-43
2023/05/29 02:29:39;;;;;;;6.25;3.45;;;30.20;98.30;;;;;;5064264;28;20104;-43
2023/05/29 02:32:07;;;;;;;7.63;3.97;;;30.20;98.40;;;;;;5063717;28;20021;-43
2023/05/29 02:34:33;;;;;;;10.55;4.60;;;30.20;98.40;;;;;;5064127;28;20320;-43
2023/05/29 02:37:00;;;;;;;14.80;4.15;;;30.20;98.20;;;;;;5064023;28;20029;-45
2023/05/29 02:39:27;;;;;;;6.97;3.58;;;30.20;98.00;;;;;;5063975;28;20025;-43
2023/05/29 02:41:54;;;;;;;11.88;3.92;;;30.20;97.90;;;;;;5063952;28;20361;-47
2023/05/29 02:44:21;;;;;;;10.85;4.22;;;30.10;97.80;;;;;;5063787;28;20048;-48
2023/05/29 02:46:47;;;;;;;9.25;4.35;;;30.00;97.70;;;;;;5063785;28;20084;-47
2023/05/29 02:49:14;;;;;;;10.10;5.05;;;30.00;97.60;;;;;;5063952;28;20110;-45
2023/05/29 02:51:40;;;;;;;12.27;5.10;;;29.90;97.40;;;;;;5063799;28;20029;-47
2023/05/29 02:54:07;;;;;;;11.50;5.25;;;29.80;97.20;;;;;;5063712;28;20017;-47
2023/05/29 02:56:34;;;;;;;8.65;4.60;;;29.80;97.40;;;;;;5063540;28;20036;-43
2023/05/29 02:59:00;;;;;;;10.75;4.32;;;29.70;96.90;;;;;;5063699;28;20023;-57
2023/05/29 03:01:27;;;;;;;7.95;3.80;;;29.70;96.90;;;;;;5063688;28;20025;-46
2023/05/29 03:03:53;;;;;;;7.78;3.20;;;29.60;96.90;;;;;;5063358;28;20029;-47
2023/05/29 03:06:20;;;;;;;8.48;3.30;;;29.70;96.90;;;;;;5063731;28;20056;-47
2023/05/29 03:08:46;;;;;;;10.02;3.13;;;29.70;96.90;;;;;;5063288;28;20017;-43
2023/05/29 03:11:14;;;;;;;10.85;2.92;;;29.70;96.80;;;;;;5063327;28;20071;-43
2023/05/29 03:13:41;;;;;;;4.95;2.58;;;29.60;96.80;;;;;;5063572;28;20224;-46
2023/05/29 03:16:08;;;;;;;4.90;2.38;;;29.60;96.90;;;;;;5064046;28;20045;-45
2023/05/29 03:18:35;;;;;;;6.15;2.20;;;29.70;96.80;;;;;;5063458;28;20033;-51
2023/05/29 03:21:02;;;;;;;6.85;2.20;;;29.60;97.00;;;;;;5063870;28;20021;-46
2023/05/29 03:23:28;;;;;;;7.50;2.10;;;29.60;96.80;;;;;;5063104;28;20058;-44
2023/05/29 03:25:55;;;;;;;7.28;2.03;;;29.60;96.70;;;;;;5063808;28;20060;-45
2023/05/29 03:28:21;;;;;;;5.82;1.70;;;29.60;96.70;;;;;;5063398;28;20028;-43
2023/05/29 03:30:48;;;;;;;5.45;1.70;;;29.50;96.70;;;;;;5060706;28;20036;-47
2023/05/29 03:33:14;;;;;;;8.43;1.80;;;29.60;96.70;;;;;;5050821;28;20082;-50
2023/05/29 03:35:41;;;;;;;7.07;1.58;;;29.40;96.80;;;;;;5046913;28;20026;-40
2023/05/29 03:38:08;;;;;;;5.50;1.40;;;29.40;96.80;;;;;;5051244;28;20037;-50
2023/05/29 03:40:34;;;;;;;7.65;1.60;;;29.20;97.30;;;;;;5052468;28;20037;-49
2023/05/29 03:43:01;;;;;;;7.13;1.65;;;29.40;97.50;;;;;;5053621;28;20037;-49
2023/05/29 03:45:27;;;;;;;8.00;1.30;;;29.50;97.40;;;;;;5047344;28;20084;-50
2023/05/29 03:47:54;;;;;;;7.05;1.50;;;29.60;97.20;;;;;;5047563;28;20075;-48
2023/05/29 03:50:21;;;;;;;5.93;1.52;;;29.70;97.10;;;;;;5046615;28;20201;-52
2023/05/29 03:52:47;;;;;;;6.00;1.30;;;29.60;96.90;;;;;;5050958;28;20025;-50
2023/05/29 03:55:15;;;;;;;5.85;1.20;;;29.60;96.80;;;;;;5046164;28;20029;-52
2023/05/29 03:57:42;;;;;;;4.78;1.15;;;29.70;96.90;;;;;;5046325;28;20179;-52
2023/05/29 04:00:12;;;;;;;5.20;1.75;;;29.70;96.80;;;;;;5046674;28;20210;-53
2023/05/29 04:02:40;;;;;;;6.35;1.60;;;29.70;96.70;;;;;;5046739;28;20080;-48
2023/05/29 04:05:08;;;;;;;3.95;1.20;;;29.70;96.70;;;;;;5047137;28;20039;-50
2023/05/29 04:07:37;;;;;;;6.03;1.40;;;29.70;96.70;;;;;;5045674;28;20036;-53
2023/05/29 04:10:03;;;;;;;7.00;1.23;;;29.80;96.70;;;;;;5046326;28;20045;-53
2023/05/29 04:12:31;;;;;;;7.75;1.40;;;29.70;96.60;;;;;;5046670;28;20025;-49
2023/05/29 04:14:58;;;;;;;4.38;1.60;;;29.70;96.60;;;;;;5046765;28;20325;-53
2023/05/29 04:17:25;;;;;;;8.02;1.80;;;29.70;96.40;;;;;;5046329;28;20033;-51
2023/05/29 04:19:51;;;;;;;5.00;1.73;;;29.60;96.40;;;;;;5057608;28;20316;-52
2023/05/29 04:22:20;;;;;;;5.90;1.65;;;29.60;96.50;;;;;;5046108;28;20056;-48
2023/05/29 04:24:47;;;;;;;6.03;1.60;;;29.60;96.50;;;;;;5046469;28;20030;-51
2023/05/29 04:27:13;;;;;;;10.85;1.65;;;29.70;96.50;;;;;;5046557;28;20035;-54
2023/05/29 04:29:43;;;;;;;4.57;1.17;;;29.50;96.40;;;;;;5053521;28;20344;-51
2023/05/29 04:32:11;;;;;;;6.28;1.10;;;29.50;96.40;;;;;;5051469;28;20098;-51
2023/05/29 04:34:44;;;;;;;4.57;1.20;;;29.60;96.40;;;;;;5046293;28;20084;-52
2023/05/29 04:37:10;;;;;;;7.15;1.10;;;29.60;96.50;;;;;;5046205;28;20081;-53
2023/05/29 04:39:37;;;;;;;6.07;1.42;;;29.50;96.40;;;;;;5046174;28;20089;-51
2023/05/29 04:42:04;;;;;;;7.72;1.55;;;29.50;96.40;;;;;;5046202;28;20025;-51
2023/05/29 04:44:30;;;;;;;4.55;1.35;;;29.50;96.50;;;;;;5046325;28;20022;-54
2023/05/29 04:46:57;;;;;;;4.95;1.30;;;29.60;96.50;;;;;;5045919;28;20041;-53
2023/05/29 04:49:24;;;;;;;4.82;1.20;;;29.50;96.50;;;;;;5045932;28;20209;-52
2023/05/29 04:51:53;;;;;;;6.90;1.30;;;29.50;96.40;;;;;;5045923;28;20313;-50
2023/05/29 04:54:22;;;;;;;5.55;1.40;;;29.50;96.50;;;;;;5045850;28;20033;-50
2023/05/29 04:56:48;;;;;;;5.65;1.20;;;29.50;96.50;;;;;;5046076;28;20072;-52
2023/05/29 04:59:15;;;;;;;4.15;0.80;;;29.50;96.50;;;;;;5046048;28;20233;-49
2023/05/29 05:01:43;;;;;;;3.95;1.08;;;29.40;96.40;;;;;;5045638;28;20034;-48
2023/05/29 05:04:10;;;;;;;2.88;1.13;;;29.40;96.50;;;;;;5045724;28;20026;-51
2023/05/29 05:06:39;;;;;;;5.55;1.10;;;29.40;96.40;;;;;;5045398;28;20049;-50
2023/05/29 05:09:05;;;;;;;6.75;1.40;;;29.40;96.30;;;;;;5045478;28;20033;-50
2023/05/29 05:11:32;;;;;;;6.05;1.10;;;29.30;96.30;;;;;;5045427;28;20054;-52
2023/05/29 05:13:58;;;;;;;8.43;1.10;;;29.40;96.20;;;;;;5045578;28;20044;-54
2023/05/29 05:16:25;;;;;;;6.30;1.00;;;29.40;96.30;;;;;;5045346;28;20318;-50
2023/05/29 05:18:52;;;;;;;4.63;1.02;;;29.40;96.20;;;;;;5045283;28;20087;-50
2023/05/29 05:21:18;;;;;;;7.28;1.02;;;29.40;96.10;;;;;;5045128;28;20207;-54
2023/05/29 05:23:46;;;;;;;6.88;0.90;;;29.20;96.00;;;;;;5045273;28;20029;-52
2023/05/29 05:26:13;;;;;;;4.35;0.80;;;29.20;96.00;;;;;;5045304;28;20040;-49
2023/05/29 05:28:39;;;;;;;6.63;1.05;;;29.30;96.00;;;;;;5045261;28;20217;-51
2023/05/29 05:31:06;;;;;;;3.00;0.82;;;29.20;95.90;;;;;;5045434;28;20029;-51
2023/05/29 05:33:32;;;;;;;7.35;1.15;;;29.10;96.00;;;;;;5045145;28;20021;-49
2023/05/29 05:35:59;;;;;;;4.30;0.95;;;29.20;96.00;;;;;;5045213;28;20044;-53
2023/05/29 05:38:26;;;;;;;5.80;0.70;;;29.20;96.00;;;;;;5044949;28;20029;-52
2023/05/29 05:40:52;;;;;;;7.43;1.10;;;29.10;95.90;;;;;;5045428;28;20025;-48
2023/05/29 05:43:19;;;;;;;4.63;0.90;;;29.10;95.90;;;;;;5045371;28;20037;-48
2023/05/29 05:45:45;;;;;;;3.92;0.63;;;29.10;95.80;;;;;;5045238;28;20036;-52
2023/05/29 05:48:12;;;;;;;4.93;0.80;;;29.10;95.90;;;;;;5044889;28;20337;-55
2023/05/29 05:50:39;;;;;;;2.92;0.90;;;29.00;95.60;;;;;;5044821;28;20031;-51
2023/05/29 05:53:05;;;;;;;4.88;0.80;;;29.10;95.60;;;;;;5044783;28;20345;-50
2023/05/29 05:55:32;;;;;;;3.40;0.73;;;29.10;95.60;;;;;;5045051;28;20092;-52
2023/05/29 05:57:58;;;;;;;6.07;0.90;;;29.00;95.50;;;;;;5044722;28;20028;-51
2023/05/29 06:00:25;;;;;;;4.03;0.60;;;29.00;95.60;;;;;;5045191;28;20298;-53
2023/05/29 06:02:52;;;;;;;3.25;0.80;;;29.00;95.60;;;;;;5044177;28;20032;-53
2023/05/29 06:05:18;;;;;;;2.70;0.70;;;29.00;95.60;;;;;;5044516;28;20029;-51
2023/05/29 06:07:45;;;;;;;6.82;0.98;;;29.00;95.50;;;;;;5044591;28;20037;-48
2023/05/29 06:10:13;;;;;;;5.30;0.90;;;28.90;95.40;;;;;;5044410;28;20049;-50
2023/05/29 06:12:39;;;;;;;3.42;0.70;;;29.00;95.50;;;;;;5044509;28;20055;-52
2023/05/29 06:15:06;;;;;;;3.53;0.82;;;29.10;95.70;;;;;;5044724;28;20053;-52
2023/05/29 06:17:33;;;;;;;8.63;1.42;;;29.00;95.70;;;;;;5044228;28;20025;-50
2023/05/29 06:20:00;;;;;;;3.95;1.00;;;29.00;95.70;;;;;;5044366;28;20045;-49
2023/05/29 06:22:26;;;;;;;4.15;1.17;;;29.10;95.70;;;;;;5044156;28;20333;-47
2023/05/29 06:24:53;;;;;;;4.40;1.10;;;29.10;95.70;;;;;;5044336;28;20030;-53
2023/05/29 06:27:19;;;;;;;6.72;0.98;;;29.10;95.70;;;;;;5044228;28;20380;-53
2023/05/29 06:29:46;;;;;;;4.93;1.02;;;29.00;95.70;;;;;;5044245;28;20037;-47
2023/05/29 06:32:12;;;;;;;6.60;1.10;;;28.90;95.70;;;;;;5043960;28;20063;-46
2023/05/29 06:34:39;;;;;;;6.28;1.20;;;29.00;95.70;;;;;;5044198;28;20036;-58
2023/05/29 06:37:05;;;;;;;6.18;1.25;;;29.00;95.70;;;;;;5043984;28;20026;-52
2023/05/29 06:39:32;;;;;;;6.47;1.08;;;28.90;95.70;;;;;;5044006;28;20021;-50
2023/05/29 06:41:59;;;;;;;3.47;0.77;;;29.00;95.70;;;;;;5044048;28;20026;-51
2023/05/29 06:44:25;;;;;;;3.85;0.80;;;28.90;95.70;;;;;;5044078;28;20047;-53
2023/05/29 06:46:52;;;;;;;8.90;1.00;;;29.00;95.70;;;;;;5043790;28;20097;-52
2023/05/29 06:49:18;;;;;;;3.30;0.90;;;28.90;95.70;;;;;;5044164;28;20021;-49
2023/05/29 06:51:45;;;;;;;3.15;0.70;;;28.90;95.80;;;;;;5043538;28;20314;-50
2023/05/29 06:54:11;;;;;;;7.53;1.00;;;28.80;96.00;;;;;;5043790;28;20021;-52
2023/05/29 06:56:38;;;;;;;4.68;1.10;;;28.90;95.80;;;;;;5043895;28;20036;-49
2023/05/29 06:59:05;;;;;;;2.85;0.80;;;28.80;95.80;;;;;;5043914;28;20029;-50
2023/05/29 07:01:31;;;;;;;6.05;1.02;;;28.90;95.80;;;;;;5043722;28;20029;-53
2023/05/29 07:03:58;;;;;;;4.55;1.00;;;28.80;95.80;;;;;;5054989;28;20021;-57
2023/05/29 07:06:24;;;;;;;8.23;0.88;;;28.80;95.80;;;;;;5043406;28;20347;-51
2023/05/29 07:08:51;;;;;;;6.07;0.90;;;28.90;95.80;;;;;;5043642;28;20021;-51
2023/05/29 07:11:17;;;;;;;5.55;1.00;;;28.80;95.70;;;;;;5043415;28;20052;-53
2023/05/29 07:13:44;;;;;;;7.25;1.10;;;28.90;95.70;;;;;;5047092;28;20160;-52
2023/05/29 07:16:10;;;;;;;2.75;1.05;;;28.90;95.80;;;;;;5048257;28;20013;-49
2023/05/29 07:18:37;;;;;;;5.13;0.88;;;28.80;95.70;;;;;;5047601;28;20025;-51
2023/05/29 07:21:03;;;;;;;2.90;1.20;;;28.80;95.70;;;;;;5047748;28;20036;-52
2023/05/29 07:23:30;;;;;;;3.00;1.05;;;28.70;95.70;;;;;;5055389;28;20375;-52
2023/05/29 07:25:56;;;;;;;1.95;0.80;;;28.80;95.90;;;;;;5067971;28;20059;-51
2023/05/29 07:28:23;;;;;;;5.18;0.90;;;28.70;95.50;;;;;;5067483;28;20325;-52
2023/05/29 07:30:49;;;;;;;5.45;1.13;;;28.70;95.40;;;;;;5067747;28;20427;-52
2023/05/29 07:33:16;;;;;;;3.40;0.85;;;28.60;95.40;;;;;;5067333;28;20081;-52
2023/05/29 07:35:42;;;;;;;5.60;1.02;;;28.70;95.40;;;;;;5067600;28;20074;-50
2023/05/29 07:38:09;;;;;;;2.67;0.90;;;28.70;95.50;;;;;;5067357;28;20028;-50
2023/05/29 07:40:35;;;;;;;8.25;1.00;;;28.70;95.50;;;;;;5067551;28;20029;-52
2023/05/29 07:43:02;;;;;;;4.63;0.95;;;28.70;95.50;;;;;;5067183;28;20094;-52
2023/05/29 07:45:28;;;;;;;6.07;0.90;;;28.70;95.50;;;;;;5067479;28;20067;-52
2023/05/29 07:47:55;;;;;;;6.63;0.98;;;28.70;95.50;;;;;;5067109;28;20029;-53
2023/05/29 07:50:21;;;;;;;4.65;1.00;;;28.70;95.50;;;;;;5066955;28;20037;-52
2023/05/29 07:52:48;;;;;;;3.75;0.90;;;28.70;95.60;;;;;;5067031;28;20088;-50
2023/05/29 07:55:15;;;;;;;3.03;0.88;;;28.70;95.60;;;;;;5067518;28;20021;-48
2023/05/29 07:57:42;;;;;;;2.78;0.70;;;28.60;95.60;;;;;;5066982;28;20040;-50
2023/05/29 08:00:09;;;;;;;3.33;1.00;;;28.60;95.50;;;;;;5067153;28;20301;-50
2023/05/29 08:02:38;;;;;;;2.17;0.77;;;28.60;95.40;;;;;;5066816;28;20309;-55
2023/05/29 08:05:07;;;;;;;7.45;0.85;;;28.60;95.50;;;;;;5066730;28;20033;-51
2023/05/29 08:07:34;;;;;;;4.22;1.00;;;28.60;95.60;;;;;;5066791;28;20031;-53
2023/05/29 08:10:00;;;;;;;3.03;0.90;;;28.60;95.50;;;;;;5066543;28;20036;-50
2023/05/29 08:12:27;;;;;;;4.50;0.70;;;28.60;95.50;;;;;;5066711;28;20217;-56
2023/05/29 08:14:53;;;;;;;3.58;0.77;;;28.50;95.50;;;;;;5066831;28;20028;-49
2023/05/29 08:17:20;;;;;;;2.53;0.73;;;28.60;95.70;;;;;;5066501;28;20217;-50
2023/05/29 08:19:47;;;;;;;5.05;0.95;;;28.60;95.70;;;;;;5066503;28;20066;-49
2023/05/29 08:22:15;;;;;;;3.63;0.90;;;28.50;95.70;;;;;;5066526;28;20074;-49
2023/05/29 08:24:41;;;;;;;5.53;0.65;;;28.60;95.80;;;;;;5065859;28;20020;-52
2023/05/29 08:27:08;;;;;;;9.32;1.05;;;28.50;95.80;;;;;;5066532;28;20468;-52
2023/05/29 08:29:35;;;;;;;6.40;0.88;;;28.60;96.00;;;;;;5066532;28;20036;-50
2023/05/29 08:32:02;;;;;;;4.45;0.82;;;28.60;96.00;;;;;;5066287;28;20355;-54
2023/05/29 08:34:29;;;;;;;5.85;0.85;;;28.50;95.90;;;;;;5066008;28;20033;-47
2023/05/29 08:36:55;;;;;;;7.90;1.10;;;28.50;96.00;;;;;;5066276;28;20032;-52
2023/05/29 08:39:21;;;;;;;6.45;0.80;;;28.50;96.10;;;;;;5066323;28;20084;-50
2023/05/29 08:42:01;;;;;;;4.13;0.95;;;28.60;96.10;;;;;;5065986;28;20056;-47
2023/05/29 08:44:32;;;;;;;5.40;1.00;;;28.60;96.10;;;;;;5066204;28;20320;-52
2023/05/29 08:47:03;;;;;;;1.98;0.70;;;28.60;96.20;;;;;;5066276;28;20037;-47
2023/05/29 08:49:34;;;;;;;4.25;1.00;;;28.60;96.20;;;;;;5065705;28;20088;-53
2023/05/29 08:52:10;;;;;;;6.55;0.95;;;28.60;96.20;;;;;;5066165;28;20033;-47
2023/05/29 08:54:37;;;;;;;4.68;0.65;;;28.50;96.10;;;;;;5066038;28;20209;-51
2023/05/29 08:57:04;;;;;;;5.45;0.80;;;28.40;96.20;;;;;;5066365;28;20033;-52
2023/05/29 08:59:32;;;;;;;7.28;1.00;;;28.50;96.30;;;;;;5065932;28;20025;-52
2023/05/29 09:01:58;;;;;;;1.73;0.80;;;28.50;96.30;;;;;;5065817;28;20379;-59
2023/05/29 09:04:25;;;;;;;3.33;0.85;;;28.40;96.40;;;;;;5065465;28;20029;-49
2023/05/29 09:06:52;;;;;;;2.78;0.77;;;28.50;96.50;;;;;;5065541;28;20024;-51
2023/05/29 09:09:20;;;;;;;5.18;1.50;;;28.60;96.60;;;;;;5065673;28;20096;-52
2023/05/29 09:11:47;;;;;;;6.03;1.40;;;28.50;96.60;;;;;;5065379;28;20057;-52
2023/05/29 09:14:36;;;;;;;8.13;5.22;;;28.50;96.50;;;;;;5065487;28;20025;-53
2023/05/29 09:17:03;;;;;;;24.63;14.10;;;28.50;96.70;;;;;;5065489;28;20036;-52
2023/05/29 09:19:30;;;;;;;20.92;15.82;;;28.50;96.70;;;;;;5065049;28;20332;-52
2023/05/29 09:22:08;;;;;;;17.33;9.60;;;28.40;96.70;;;;;;5065436;28;20100;-50
2023/05/29 09:24:37;;;;;;;10.63;5.82;;;28.50;96.80;;;;;;5061604;28;20049;-47
2023/05/29 09:27:13;;;;;;;10.90;5.25;;;28.50;96.90;;;;;;5065097;28;20028;-51
2023/05/29 09:29:40;;;;;;;14.02;6.43;;;28.40;96.80;;;;;;5065281;28;20065;-49
2023/05/29 09:32:11;;;;;;;13.77;6.55;;;28.40;96.80;;;;;;5064991;28;20040;-52
2023/05/29 09:34:38;;;;;;;13.93;6.25;;;28.40;96.80;;;;;;5064903;28;20025;-47
2023/05/29 09:37:09;;;;;;;7.93;4.15;;;28.40;96.80;;;;;;5064075;28;20087;-46
2023/05/29 09:39:49;;;;;;;5.23;3.20;;;28.40;97.00;;;;;;5064970;28;20025;-50
2023/05/29 09:42:16;;;;;;;8.88;2.47;;;28.50;96.90;;;;;;5064980;28;20270;-50
2023/05/29 09:44:44;;;;;;;7.65;3.28;;;28.40;96.80;;;;;;5065035;28;20037;-49
2023/05/29 09:47:17;;;;;;;9.15;4.25;;;28.40;96.80;;;;;;5061429;28;20033;-47
2023/05/29 09:49:45;;;;;;;7.40;3.50;;;28.30;96.80;;;;;;5053405;28;20034;-54
2023/05/29 09:52:15;;;;;;;6.07;3.13;;;28.30;96.80;;;;;;5047207;28;20065;-49
2023/05/29 09:54:45;;;;;;;9.13;3.00;;;28.40;96.80;;;;;;5053689;28;20021;-48
2023/05/29 09:57:16;;;;;;;6.13;2.20;;;28.30;96.80;;;;;;5044767;28;20037;-52
2023/05/29 09:59:50;;;;;;;7.45;1.80;;;28.30;96.80;;;;;;5044800;28;20205;-49
2023/05/29 10:02:18;;;;;;;7.70;1.50;;;28.30;96.80;;;;;;5044655;28;20041;-49
2023/05/29 10:04:45;;;;;;;9.43;1.90;;;28.30;96.80;;;;;;5044279;28;20017;-48
2023/05/29 10:07:35;;;;;;;4.15;1.40;;;28.30;96.80;;;;;;5044824;28;20065;-49
2023/05/29 10:10:09;;;;;;;3.80;1.20;;;28.40;96.70;;;;;;5044465;28;20038;-51
2023/05/29 10:12:41;;;;;;;8.10;1.48;;;28.30;96.50;;;;;;5044422;28;20024;-54
2023/05/29 10:15:13;;;;;;;5.22;1.52;;;28.30;96.40;;;;;;5044822;28;20333;-51
2023/05/29 10:17:57;;;;;;;10.43;1.00;;;28.20;96.40;;;;;;5044052;28;20017;-51
2023/05/29 10:20:26;;;;;;;4.05;1.00;;;28.30;96.40;;;;;;5044664;28;20104;-51
2023/05/29 10:22:56;;;;;;;6.03;1.70;;;28.30;96.30;;;;;;5044261;28;20150;-53
2023/05/29 10:25:24;;;;;;;5.65;2.15;;;28.20;96.30;;;;;;5044495;28;20029;-50
2023/05/29 10:27:51;;;;;;;9.90;2.35;;;28.30;96.50;;;;;;5044085;28;20344;-47
2023/05/29 10:30:43;;;;;;;7.85;2.00;;;28.20;96.40;;;;;;5044641;28;20206;-51
2023/05/29 10:33:28;;;;;;;6.68;2.90;;;28.20;96.40;;;;;;5043662;28;20029;-48
2023/05/29 10:36:01;;;;;;;8.95;3.13;;;28.20;96.40;;;;;;5044537;28;20049;-53
2023/05/29 10:38:27;;;;;;;7.45;3.28;;;28.30;96.40;;;;;;5043932;28;20038;-53
2023/05/29 10:40:54;;;;;;;7.40;2.17;;;28.20;96.30;;;;;;5044466;28;20030;-55
2023/05/29 10:43:43;;;;;;;6.32;2.30;;;28.20;96.30;;;;;;5046939;28;20054;-52
2023/05/29 10:46:10;;;;;;;6.75;1.63;;;28.20;96.30;;;;;;5064425;28;20040;-49
2023/05/29 10:48:37;;;;;;;4.75;1.52;;;28.30;96.40;;;;;;5063379;28;20032;-47
2023/05/29 10:51:09;;;;;;;6.75;1.80;;;28.30;96.40;;;;;;5064021;28;20024;-49
2023/05/29 10:53:40;;;;;;;9.43;1.35;;;28.30;96.50;;;;;;5063770;28;20029;-52
2023/05/29 10:56:14;;;;;;;8.85;1.50;;;28.20;96.50;;;;;;5064283;28;20036;-48
2023/05/29 10:58:41;;;;;;;5.00;1.40;;;28.20;96.50;;;;;;5063696;28;20033;-49
2023/05/29 11:01:09;;;;;;;7.65;1.85;;;28.20;96.50;;;;;;5051467;28;20310;-48
2023/05/29 11:03:36;;;;;;;9.18;2.30;;;28.30;96.60;;;;;;5054793;28;20028;-52
2023/05/29 11:06:16;;;;;;;7.38;2.15;;;28.30;96.60;;;;;;5061076;28;20477;-51
2023/05/29 11:08:46;;;;;;;6.25;1.58;;;28.30;96.60;;;;;;5053150;28;20253;-52
2023/05/29 11:11:35;;;;;;;10.73;2.50;;;28.30;96.60;;;;;;5048599;28;20057;-54
2023/05/29 11:14:06;;;;;;;7.80;2.42;;;28.40;96.70;;;;;;5061733;28;20071;-47
2023/05/29 11:16:33;;;;;;;7.22;2.30;;;28.40;96.70;;;;;;5063612;28;20088;-49
2023/05/29 11:19:10;;;;;;;9.95;2.10;;;28.50;96.80;;;;;;5063096;28;20078;-41
2023/05/29 11:22:09;;;;;;;6.53;1.90;;;28.40;96.60;;;;;;5063442;28;20039;-43
2023/05/29 11:24:37;;;;;;;8.40;1.60;;;28.40;96.90;;;;;;5063233;28;20033;-48
2023/05/29 11:27:07;;;;;;;7.50;1.77;;;28.40;96.80;;;;;;5062311;28;20037;-43
2023/05/29 11:29:35;;;;;;;6.47;1.80;;;28.40;96.90;;;;;;5062989;28;20270;-44
2023/05/29 11:32:09;;;;;;;6.50;1.88;;;28.50;97.10;;;;;;5063008;28;20389;-49
2023/05/29 11:34:40;;;;;;;4.60;1.80;;;28.40;97.00;;;;;;5063524;28;20036;-49
2023/05/29 11:37:07;;;;;;;7.63;2.38;;;28.60;97.10;;;;;;5063461;28;20033;-53
2023/05/29 11:39:38;;;;;;;5.85;2.50;;;28.50;97.10;;;;;;5055138;28;20020;-52
2023/05/29 11:42:06;;;;;;;6.00;2.60;;;28.40;97.00;;;;;;5052242;28;20088;-42
2023/05/29 11:44:33;;;;;;;8.90;2.33;;;28.40;97.00;;;;;;5043524;28;20025;-44
2023/05/29 11:47:03;;;;;;;8.15;2.30;;;28.40;97.10;;;;;;5042953;28;20104;-42
2023/05/29 11:49:32;;;;;;;3.67;1.60;;;28.50;97.10;;;;;;5043359;28;20032;-47
2023/05/29 11:52:13;;;;;;;7.47;2.25;;;28.50;97.20;;;;;;5043310;28;20343;-42
2023/05/29 11:54:46;;;;;;;10.93;2.80;;;28.50;97.30;;;;;;5043358;28;20301;-52
2023/05/29 11:57:21;;;;;;;7.50;2.80;;;28.50;97.30;;;;;;5045094;28;20073;-42
2023/05/29 11:59:58;;;;;;;7.35;2.00;;;28.70;97.50;;;;;;5053718;28;20049;-41
2023/05/29 12:02:25;;;;;;;7.30;1.88;;;28.70;97.40;;;;;;5046585;28;20099;-50
2023/05/29 12:05:07;;;;;;;7.18;1.83;;;28.80;97.40;;;;;;5046904;28;20268;-46
2023/05/29 12:07:34;;;;;;;5.28;1.35;;;28.80;97.40;;;;;;5046846;28;20034;-48
2023/05/29 12:10:18;;;;;;;4.13;1.25;;;28.70;97.20;;;;;;5046605;28;20036;-47
2023/05/29 12:12:52;;;;;;;2.50;1.10;;;28.80;97.20;;;;;;5046700;28;20041;-45
2023/05/29 12:15:19;;;;;;;5.25;1.23;;;28.80;97.20;;;;;;5046760;28;20031;-44
2023/05/29 12:17:46;;;;;;;6.25;1.25;;;28.70;97.00;;;;;;5046264;28;20045;-44
2023/05/29 12:20:14;;;;;;;3.65;1.10;;;28.70;97.00;;;;;;5046844;28;20025;-50
2023/05/29 12:22:42;;;;;;;5.55;1.33;;;28.80;97.10;;;;;;5046408;28;20124;-45
2023/05/29 12:25:14;;;;;;;3.05;1.20;;;28.80;96.90;;;;;;5046834;28;20340;-42
2023/05/29 12:27:42;;;;;;;6.80;1.00;;;29.00;96.80;;;;;;5046671;28;20033;-42
2023/05/29 12:30:28;;;;;;;4.10;1.10;;;29.10;96.70;;;;;;5070885;28;20348;-42
2023/05/29 12:32:55;;;;;;;3.72;1.15;;;29.20;96.50;;;;;;5069256;28;20225;-52
2023/05/29 12:35:27;;;;;;;5.93;0.88;;;29.20;96.30;;;;;;5064307;28;20098;-42
2023/05/29 12:37:54;;;;;;;4.82;1.08;;;29.20;96.30;;;;;;5064529;28;20316;-43
2023/05/29 12:40:28;;;;;;;5.45;1.05;;;29.20;96.20;;;;;;5064311;28;20104;-43
2023/05/29 12:43:03;;;;;;;6.65;1.00;;;29.20;96.20;;;;;;5064384;28;20171;-44
2023/05/29 12:45:31;;;;;;;1.83;0.60;;;29.30;96.20;;;;;;5072581;28;20029;-42
2023/05/29 12:48:03;;;;;;;2.47;0.80;;;29.30;96.20;;;;;;5065955;28;20102;-46
2023/05/29 12:50:38;;;;;;;3.72;1.10;;;29.20;96.20;;;;;;5064059;28;20029;-45
2023/05/29 12:53:06;;;;;;;6.13;1.25;;;29.20;96.20;;;;;;5074793;28;20316;-49
2023/05/29 12:55:38;;;;;;;3.55;1.20;;;29.20;96.20;;;;;;5066597;28;20040;-43